Puntarenas, Costa Rica
Current Conditions -  °F | °C
As of 5:00 PM on Sunday 19 Oct 2014 (Local Time) from MRPV Reporting Station
Broken Clouds Broken Clouds  
Wind Chill: 70°   Ceiling: 10000
Heat Index: 70°   Visibility: 6mi
Dew Point: 66°   Wind: 1mph
Humidity: 88%   Direction: 240°WSW
Pressure: 29.98"   Gusts: NA
Location:  9.58°N, 84.5°W
Report Text: MRPV 192300Z 24001KT 9999 FEW005 BKN100 21/19 A2998 NOSIG
Loading
Personal Weather Stations






























Interactive Weather Map
Tropical Storm Tracking
New forecast layout! Learn more

10-Day Weather Forecast

Advertisements
Track Severe Weather on mobile